Afton, CA

8:17 PM PDT on September 01, 2014 (GMT -0700)
Behring Ranch | Change Station
CLOSE
Current Station
Personal Weather Station
Location: Colusa, CA
Elevation: 52 ft
Nearby Weather Stations

Elev 52 ft 39.34 °N, 121.93 °W | Updated 1 minute ago

Clear
Clear
81.6 °F
Feels Like 83 °F
N
2.0
Wind Variable Wind from SE

Today
High -- | Low -- °F
--% Chance of Precip.
Yesterday
High -- | Low -- °F
Precip. -- in
6:36 AM 7:38 PM
Waxing Crescent, 47% visible
Pressure 29.70 in
Visibility 10.0 miles
Clouds Clear
Heat Index 83 °F
Dew Point 63 °F
Humidity 53%
Rainfall 0.00 in
Snow Depth Not available.
UV 0 out of 12
Pollen 9.40 out of 12
Ozone Good
Flu Activity Not available.
METAR KOVE 020253Z AUTO 17003KT 10SM CLR 32/10 A2970 RMK AO2 SLP058 T03220100 55006

More Conditions Fewer Conditions

Pressure 29.70 in
Visibility 10.0 miles
Clouds Clear
Heat Index 83 °F
Dew Point 63 °F
Humidity 53%
Rainfall 0.00 in
Snow Depth Not available.
UV 0 out of 12
Pollen 9.40 out of 12
Ozone Good
Flu Activity Not available.
METAR KOVE 020253Z AUTO 17003KT 10SM CLR 32/10 A2970 RMK AO2 SLP058 T03220100 55006

More Conditions Fewer Conditions

10-Day Weather Forecast

Almanac

Astronomy

Sep. 01, 2014 Rise Set
Actual Time 6:36 AM PDT 7:38 PM PDT
Civil Twilight 6:08 AM PDT 8:06 PM PDT
Nautical Twilight 5:35 AM PDT 8:38 PM PDT
Astronomical Twilight 5:01 AM PDT 9:12 PM PDT
Moon 1:25 PM PDT (9/1) 11:46 PM PDT (9/1)
Length of Visible Light 13h 57m
Length of Day
13h 02m
Tomorrow will be 2m 28s shorter.
Waxing Crescent, 47% of the Moon is Illuminated
Today
Waxing Crescent
Sep 2
First Quarter
Sep 8
Full
Sep 15
Last Quarter
Sep 24
New

Today's Extremes

State Highs State Lows

Community

WunderPhotos

Upload Photos

1,749,539 photos uploaded!

WunderBlogs® & News

Nearby

Air Quality

  Air Quality AQ Index Pollutant
Yesterday Good
OZONE
Current Good
OZONE
Monday Moderate
OZONE
Tuesday Moderate
OZONE
Wednesday Moderate
OZONE

Snow Depth

Station Depth Elevation
CSS Lab 0 in 6900 ft
Rubicon #2 0 in 7500 ft
Adin Mountain 1 in 6200 ft
Summit Meadow 0 in 9122 ft
Leavitt Meadows 0 in 7200 ft

Earthquake Activity

City Distance Mag. Time & Date
Yountville, California 79 miles 2.6 1:15 PM PDT
2014-09-01
Green Valley, California 84 miles 2.5 6:37 AM PDT
2014-08-31
Napa, California 87 miles 3.2 1:56 AM PDT
2014-08-31
Minimum magnitude displayed is 2.5.

Coastal Water Temperatures

Place Temperature
No Stations Reporting

Nearby Weather Stations